Terminal Aerodrome Forecast
Issued by NWS

Current Version | Previous Version | Text Only | Print | Product List | Glossary On
Versions: 1 2 3 4 5 6 7 8 9 10 11 12 13 14 15 16 17 18 19 20 21 22 23 24
000
FTUS43 KGRR 031700
TAFLAN
TAF
KLAN 031740Z 0318/0418 15016KT 2SM -FZRAPL BR OVC012
     FM032200 21016G26KT 4SM -RA BR OVC004
     FM040000 24014G24KT 6SM -FZDZ BR OVC009
     FM040400 27012KT P6SM OVC025
     FM041300 29012KT P6SM OVC035=

USA.gov is the U.S. government's official web portal to all federal, state and local government web resources and services.